createdAt,value
2019-05-17T00:01:57.948Z,16.30
2019-05-17T00:04:27.423Z,16.20
2019-05-17T00:07:03.619Z,16.30
2019-05-17T00:09:47.871Z,16.30
2019-05-17T00:12:23.142Z,16.30
2019-05-17T00:14:58.876Z,16.20
2019-05-17T00:17:28.406Z,16.20
2019-05-17T00:20:06.200Z,16.20
2019-05-17T00:22:36.601Z,16.10
2019-05-17T00:25:16.828Z,16.10
2019-05-17T00:27:47.468Z,16.10
2019-05-17T00:30:26.518Z,16.10
2019-05-17T00:33:02.687Z,16.20
2019-05-17T00:35:32.209Z,16.20
2019-05-17T00:38:08.509Z,16.20
2019-05-17T00:40:44.084Z,16.20
2019-05-17T00:43:20.315Z,16.20
2019-05-17T00:45:49.764Z,16.20
2019-05-17T00:48:26.520Z,16.10
2019-05-17T00:51:01.657Z,16.20
2019-05-17T00:53:33.750Z,16.10
2019-05-17T00:56:09.483Z,16.00
2019-05-17T00:58:47.591Z,16.00
2019-05-17T01:01:23.689Z,16.00
2019-05-17T01:04:00.138Z,16.00
2019-05-17T01:06:37.533Z,16.00
2019-05-17T01:09:16.977Z,16.00
2019-05-17T01:11:59.815Z,16.00
2019-05-17T01:14:29.269Z,15.90
2019-05-17T01:17:07.191Z,15.90
2019-05-17T01:19:37.038Z,16.00
2019-05-17T01:22:13.233Z,15.90
2019-05-17T01:24:49.758Z,15.90
2019-05-17T01:27:26.391Z,15.90
2019-05-17T01:30:02.812Z,15.90
2019-05-17T01:32:38.811Z,15.90
2019-05-17T01:35:16.736Z,15.90
2019-05-17T01:37:52.915Z,15.90
2019-05-17T01:40:22.647Z,15.90
2019-05-17T01:42:58.281Z,15.90
2019-05-17T01:45:36.527Z,15.90
2019-05-17T01:48:07.367Z,15.90
2019-05-17T01:50:46.366Z,15.90
2019-05-17T01:53:22.078Z,16.00
2019-05-17T01:55:51.528Z,15.90
2019-05-17T01:58:22.402Z,15.90
2019-05-17T02:00:59.099Z,15.90
2019-05-17T02:03:41.185Z,15.90
2019-05-17T02:06:10.650Z,15.90
2019-05-17T02:08:53.464Z,15.90
2019-05-17T02:11:29.046Z,15.90
2019-05-17T02:14:07.005Z,15.90
2019-05-17T02:16:37.590Z,15.90
2019-05-17T02:19:14.008Z,15.90
2019-05-17T02:21:50.499Z,15.90
2019-05-17T02:24:20.116Z,15.90
2019-05-17T02:26:49.707Z,15.90
2019-05-17T02:29:25.481Z,15.90
2019-05-17T02:31:55.346Z,15.90
2019-05-17T02:34:33.677Z,15.90
2019-05-17T02:37:08.909Z,16.00
2019-05-17T02:39:53.792Z,16.00
2019-05-17T02:42:16.325Z,16.00
2019-05-17T02:44:53.786Z,16.00
2019-05-17T02:47:33.346Z,16.00
2019-05-17T02:50:08.565Z,16.00
2019-05-17T02:52:44.895Z,16.00
2019-05-17T02:55:14.860Z,16.00
2019-05-17T02:57:52.948Z,16.00
2019-05-17T03:00:23.943Z,16.00
2019-05-17T03:03:02.984Z,16.00
2019-05-17T03:05:38.178Z,16.00
2019-05-17T03:08:14.741Z,16.00
2019-05-17T03:10:53.175Z,16.00
2019-05-17T03:13:34.850Z,16.10
2019-05-17T03:16:04.510Z,16.10
2019-05-17T03:18:47.034Z,16.00
2019-05-17T03:21:16.626Z,16.00
2019-05-17T03:23:46.146Z,16.10
2019-05-17T03:26:23.037Z,16.10
2019-05-17T03:28:53.804Z,16.00
2019-05-17T03:31:41.529Z,16.00
2019-05-17T03:34:16.026Z,16.10
2019-05-17T03:36:46.150Z,16.00
2019-05-17T03:39:22.489Z,16.00
2019-05-17T03:41:53.330Z,16.10
2019-05-17T03:44:28.489Z,16.10
2019-05-17T03:46:58.016Z,16.00
2019-05-17T03:49:34.197Z,16.00
2019-05-17T03:52:03.859Z,16.10
2019-05-17T03:54:43.005Z,16.00
2019-05-17T03:57:13.395Z,16.10
2019-05-17T03:59:52.405Z,16.00
2019-05-17T04:02:27.527Z,16.10
2019-05-17T04:04:56.977Z,16.10
2019-05-17T04:07:33.062Z,16.10
2019-05-17T04:10:04.579Z,16.10
2019-05-17T04:12:43.930Z,16.10
2019-05-17T04:15:19.940Z,16.10
2019-05-17T04:17:55.800Z,16.10
2019-05-17T04:20:33.308Z,16.10
2019-05-17T04:23:09.102Z,16.10
2019-05-17T04:25:38.973Z,16.00
2019-05-17T04:28:15.260Z,16.10
2019-05-17T04:30:44.784Z,16.00
2019-05-17T04:33:14.447Z,16.00
2019-05-17T04:36:05.368Z,16.00
2019-05-17T04:38:43.618Z,16.00
2019-05-17T04:41:36.082Z,16.00
2019-05-17T04:43:52.912Z,16.00
2019-05-17T04:46:28.216Z,16.10
2019-05-17T04:48:57.682Z,16.00
2019-05-17T04:51:33.826Z,16.00
2019-05-17T04:54:03.629Z,16.00
2019-05-17T04:56:42.450Z,16.10
2019-05-17T04:59:13.871Z,16.10
2019-05-17T05:01:48.630Z,16.10
2019-05-17T05:04:24.222Z,16.00
2019-05-17T05:06:53.904Z,16.00
2019-05-17T05:09:32.304Z,16.10
2019-05-17T05:12:08.875Z,16.00
2019-05-17T05:14:52.310Z,16.00
2019-05-17T05:17:22.231Z,16.10
2019-05-17T05:19:58.141Z,16.10
2019-05-17T05:22:27.598Z,16.00
2019-05-17T05:25:03.215Z,16.00
2019-05-17T05:27:34.210Z,16.00
2019-05-17T05:30:17.678Z,16.00
2019-05-17T05:32:53.204Z,16.00
2019-05-17T05:35:29.103Z,16.00
2019-05-17T05:38:04.769Z,16.00
2019-05-17T05:40:41.404Z,16.00
2019-05-17T05:43:11.993Z,16.00
2019-05-17T05:45:48.790Z,16.00
2019-05-17T05:48:18.309Z,15.90
2019-05-17T05:50:49.366Z,15.90
2019-05-17T05:53:25.729Z,16.00
2019-05-17T05:55:55.206Z,16.00
2019-05-17T05:58:24.661Z,16.00
2019-05-17T06:01:02.369Z,16.00
2019-05-17T06:03:32.268Z,16.00
2019-05-17T06:06:15.044Z,16.00
2019-05-17T06:08:52.072Z,16.10
2019-05-17T06:11:28.797Z,16.00
2019-05-17T06:14:04.906Z,16.10
2019-05-17T06:16:47.787Z,16.10
2019-05-17T06:19:24.247Z,16.00
2019-05-17T06:21:53.769Z,16.00
2019-05-17T06:24:31.907Z,16.00
2019-05-17T06:27:02.028Z,16.10
2019-05-17T06:29:38.560Z,16.10
2019-05-17T06:32:14.654Z,16.10
2019-05-17T06:34:44.122Z,16.20
2019-05-17T06:37:22.393Z,16.20
2019-05-17T06:39:52.681Z,16.20
2019-05-17T06:42:38.239Z,16.10
2019-05-17T06:45:06.832Z,16.20
2019-05-17T06:47:36.355Z,16.20
2019-05-17T06:50:14.668Z,16.20
2019-05-17T06:52:44.636Z,16.20
2019-05-17T06:55:15.757Z,16.20
2019-05-17T06:57:52.772Z,16.30
2019-05-17T07:00:30.592Z,16.20
2019-05-17T07:03:06.462Z,16.30
2019-05-17T07:05:37.563Z,16.30
2019-05-17T07:08:13.518Z,16.40
2019-05-17T07:10:43.044Z,16.40
2019-05-17T07:13:19.811Z,16.40
2019-05-17T07:16:10.346Z,16.40
2019-05-17T07:18:40.131Z,16.50
2019-05-17T07:21:10.155Z,16.50
2019-05-17T07:23:46.670Z,16.60
2019-05-17T07:26:22.380Z,16.60
2019-05-17T07:28:51.845Z,16.70
2019-05-17T07:31:29.746Z,16.70
2019-05-17T07:33:59.933Z,16.70
2019-05-17T07:36:36.121Z,16.70
2019-05-17T07:39:12.725Z,16.70
2019-05-17T07:41:42.193Z,16.80
2019-05-17T07:44:20.392Z,16.90
2019-05-17T07:46:55.716Z,16.90
2019-05-17T07:49:25.169Z,16.90
2019-05-17T07:52:00.996Z,16.90
2019-05-17T07:54:30.448Z,16.90
2019-05-17T07:57:06.160Z,17.00
2019-05-17T07:59:42.818Z,17.00
2019-05-17T08:02:19.808Z,17.00
2019-05-17T08:04:50.103Z,17.10
2019-05-17T08:07:26.895Z,17.00
2019-05-17T08:10:02.631Z,17.10
2019-05-17T08:12:40.662Z,17.00
2019-05-17T08:15:30.506Z,17.10
2019-05-17T08:18:10.770Z,17.10
2019-05-17T08:20:46.188Z,17.10
2019-05-17T08:23:22.571Z,17.10
2019-05-17T08:25:56.096Z,17.10
2019-05-17T08:28:31.259Z,17.10
2019-05-17T08:31:09.922Z,17.20
2019-05-17T08:33:40.653Z,17.20
2019-05-17T08:36:16.571Z,17.30
2019-05-17T08:38:46.118Z,17.40
2019-05-17T08:41:22.894Z,17.40
2019-05-17T08:43:52.425Z,17.40
2019-05-17T08:46:30.369Z,17.40
2019-05-17T08:49:00.306Z,17.40
2019-05-17T08:51:36.235Z,17.40
2019-05-17T08:54:05.780Z,17.40
2019-05-17T08:56:42.100Z,17.50
2019-05-17T08:59:11.707Z,17.50
2019-05-17T09:01:50.128Z,17.50
2019-05-17T09:04:20.132Z,17.60
2019-05-17T09:06:56.088Z,17.60
2019-05-17T09:09:25.554Z,17.60
2019-05-17T09:12:01.627Z,17.60
2019-05-17T09:14:39.971Z,17.60
2019-05-17T09:17:22.279Z,17.70
2019-05-17T09:19:54.327Z,17.80
2019-05-17T09:22:30.555Z,17.80
2019-05-17T09:25:00.138Z,17.80
2019-05-17T09:27:30.131Z,17.80
2019-05-17T09:30:05.695Z,17.80
2019-05-17T09:32:35.227Z,17.80
2019-05-17T09:35:13.335Z,17.80
2019-05-17T09:37:49.984Z,17.80
2019-05-17T09:40:20.123Z,17.80
2019-05-17T09:42:56.216Z,17.70
2019-05-17T09:45:25.960Z,17.70
2019-05-17T09:48:03.572Z,17.80
2019-05-17T09:50:33.023Z,17.70
2019-05-17T09:53:10.834Z,17.70
2019-05-17T09:55:40.264Z,17.80
2019-05-17T09:58:16.609Z,17.80
2019-05-17T10:00:46.129Z,17.70
2019-05-17T10:03:23.886Z,17.80
2019-05-17T10:06:05.792Z,17.80
2019-05-17T10:08:35.320Z,17.80
2019-05-17T10:11:08.926Z,17.80
2019-05-17T10:13:43.284Z,17.90
2019-05-17T10:16:20.492Z,18.00
2019-05-17T10:18:56.522Z,18.00
2019-05-17T10:21:33.088Z,17.90
2019-05-17T10:24:09.718Z,18.00
2019-05-17T10:26:46.159Z,18.00
2019-05-17T10:29:22.801Z,18.10
2019-05-17T10:31:59.827Z,18.10
2019-05-17T10:34:29.514Z,18.00
2019-05-17T10:36:59.621Z,17.90
2019-05-17T10:39:39.402Z,18.00
2019-05-17T10:42:14.081Z,18.00
2019-05-17T10:44:51.389Z,18.00
2019-05-17T10:47:21.839Z,18.20
2019-05-17T10:49:57.999Z,18.40
2019-05-17T10:52:29.870Z,18.50
2019-05-17T10:55:06.056Z,18.60
2019-05-17T10:57:41.798Z,18.70
2019-05-17T11:00:12.263Z,18.80
2019-05-17T11:02:50.362Z,18.80
2019-05-17T11:05:26.060Z,19.00
2019-05-17T11:08:02.607Z,19.10
2019-05-17T11:10:39.421Z,19.10
2019-05-17T11:13:09.166Z,19.10
2019-05-17T11:15:51.336Z,19.30
2019-05-17T11:18:27.785Z,19.40
2019-05-17T11:21:04.164Z,19.50
2019-05-17T11:23:33.622Z,19.50
2019-05-17T11:26:09.894Z,19.60
2019-05-17T11:28:45.731Z,19.60
2019-05-17T11:31:15.265Z,19.70
2019-05-17T11:33:51.590Z,19.80
2019-05-17T11:36:21.188Z,20.00
2019-05-17T11:38:57.312Z,20.20
2019-05-17T11:41:26.779Z,20.40
2019-05-17T11:44:02.408Z,20.50
2019-05-17T11:46:36.262Z,20.50
2019-05-17T11:49:17.572Z,20.60
2019-05-17T11:51:47.116Z,20.60
2019-05-17T11:54:23.544Z,20.70
2019-05-17T11:56:59.309Z,20.80
2019-05-17T11:59:35.788Z,20.90
2019-05-17T12:02:05.470Z,21.00
2019-05-17T12:04:41.604Z,21.00
2019-05-17T12:07:17.517Z,21.10
2019-05-17T12:09:47.015Z,21.30
2019-05-17T12:12:22.676Z,21.40
2019-05-17T12:14:52.213Z,21.50
2019-05-17T12:17:28.339Z,21.60
2019-05-17T12:20:11.032Z,21.70
2019-05-17T12:22:53.512Z,21.90
2019-05-17T12:25:30.206Z,22.10
2019-05-17T12:27:59.776Z,22.30
2019-05-17T12:30:35.562Z,22.50
2019-05-17T12:33:11.267Z,22.50
2019-05-17T12:35:42.253Z,22.50
2019-05-17T12:38:17.994Z,22.50
2019-05-17T12:40:47.439Z,22.40
2019-05-17T12:43:23.485Z,22.00
2019-05-17T12:46:01.405Z,21.70
2019-05-17T12:48:38.760Z,21.20
2019-05-17T12:51:08.263Z,20.70
2019-05-17T12:53:44.307Z,20.30
2019-05-17T12:56:13.763Z,20.10
2019-05-17T12:58:49.892Z,20.20
2019-05-17T13:01:19.470Z,20.30
2019-05-17T13:03:54.994Z,20.30
2019-05-17T13:06:24.582Z,20.20
2019-05-17T13:09:07.318Z,20.20
2019-05-17T13:11:45.475Z,20.20
2019-05-17T13:14:21.819Z,20.00
2019-05-17T13:17:04.609Z,20.00
2019-05-17T13:19:47.772Z,20.10
2019-05-17T13:22:23.884Z,20.00
2019-05-17T13:25:00.482Z,19.80
2019-05-17T13:27:30.480Z,19.70
2019-05-17T13:30:07.156Z,19.40
2019-05-17T13:32:38.405Z,19.30
2019-05-17T13:35:16.823Z,19.30
2019-05-17T13:37:46.366Z,19.20
2019-05-17T13:40:23.875Z,19.20
2019-05-17T13:42:59.708Z,19.20
2019-05-17T13:45:36.060Z,19.20
2019-05-17T13:48:07.829Z,19.30
2019-05-17T13:50:43.431Z,19.30
2019-05-17T13:53:19.611Z,19.40
2019-05-17T13:55:49.204Z,19.40
2019-05-17T13:58:24.965Z,19.40
2019-05-17T14:01:08.041Z,19.40
2019-05-17T14:03:37.650Z,19.40
2019-05-17T14:06:14.152Z,19.40
2019-05-17T14:08:43.751Z,19.30
2019-05-17T14:11:19.869Z,19.40
2019-05-17T14:13:49.344Z,19.40
2019-05-17T14:16:25.046Z,19.40
2019-05-17T14:18:54.896Z,19.40
2019-05-17T14:21:37.259Z,19.30
2019-05-17T14:24:13.346Z,19.30
2019-05-17T14:26:49.012Z,19.30
2019-05-17T14:29:25.419Z,19.20
2019-05-17T14:31:55.233Z,19.20
2019-05-17T14:34:31.715Z,19.20
2019-05-17T14:37:01.253Z,19.20
2019-05-17T14:39:37.038Z,19.20
2019-05-17T14:42:06.746Z,19.20
2019-05-17T14:44:42.432Z,19.20
2019-05-17T14:47:12.039Z,19.20
2019-05-17T14:49:51.097Z,19.20
2019-05-17T14:52:26.754Z,19.30
2019-05-17T14:54:56.305Z,19.30
2019-05-17T14:57:32.336Z,19.20
2019-05-17T15:00:01.883Z,19.20
2019-05-17T15:02:31.353Z,19.20
2019-05-17T15:05:08.109Z,19.20
2019-05-17T15:07:51.617Z,19.20
2019-05-17T15:10:21.277Z,19.20
2019-05-17T15:13:01.450Z,19.10
2019-05-17T15:15:29.518Z,19.10
2019-05-17T15:18:09.415Z,19.10
2019-05-17T15:20:43.749Z,19.10
2019-05-17T15:23:21.561Z,19.10
2019-05-17T15:26:04.260Z,19.10
2019-05-17T15:28:40.281Z,19.10
2019-05-17T15:31:09.736Z,19.00
2019-05-17T15:33:46.211Z,19.00
2019-05-17T15:36:15.840Z,19.00
2019-05-17T15:38:58.575Z,19.00
2019-05-17T15:41:28.272Z,18.90
2019-05-17T15:44:04.325Z,18.80
2019-05-17T15:46:33.938Z,18.70
2019-05-17T15:49:09.552Z,18.70
2019-05-17T15:51:45.918Z,18.80
2019-05-17T15:59:10.562Z,18.80
2019-05-17T16:01:46.780Z,19.00
2019-05-17T16:04:29.705Z,18.80
2019-05-17T16:07:12.408Z,18.70
2019-05-17T16:09:48.524Z,18.70
2019-05-17T16:12:30.719Z,18.60
2019-05-17T16:15:07.125Z,18.60
2019-05-17T16:17:49.646Z,18.60
2019-05-17T16:20:32.667Z,18.60
2019-05-17T16:23:15.339Z,18.60
2019-05-17T16:25:51.257Z,18.60
2019-05-17T16:28:34.077Z,18.70
2019-05-17T16:31:10.262Z,18.70
2019-05-17T16:33:53.015Z,18.80
2019-05-17T16:36:29.643Z,18.90
2019-05-17T16:39:14.075Z,19.10
2019-05-17T16:41:49.906Z,19.10
2019-05-17T16:44:32.526Z,19.00
2019-05-17T16:47:08.184Z,19.00
2019-05-17T16:49:50.920Z,19.00
2019-05-17T16:52:33.800Z,19.00
2019-05-17T16:55:10.870Z,19.00
2019-05-17T16:57:47.442Z,19.00
2019-05-17T17:00:54.393Z,19.00
2019-05-17T17:03:44.168Z,19.10
2019-05-17T17:06:14.779Z,19.00
2019-05-17T17:08:57.248Z,19.00
2019-05-17T17:11:32.955Z,19.00
2019-05-17T17:14:15.660Z,19.00
2019-05-17T17:16:54.119Z,18.90
2019-05-17T17:19:36.624Z,18.90
2019-05-17T17:22:13.220Z,18.80
2019-05-17T17:24:56.119Z,18.80
2019-05-17T17:27:45.772Z,18.80
2019-05-17T17:30:35.541Z,18.80
2019-05-17T17:33:25.500Z,18.70
2019-05-17T17:36:08.490Z,18.70
2019-05-17T17:38:44.124Z,18.60
2019-05-17T17:41:33.565Z,18.70
2019-05-17T17:44:16.973Z,18.80
2019-05-17T17:46:59.443Z,18.80
2019-05-17T17:49:42.044Z,18.70
2019-05-17T17:52:24.434Z,18.70
2019-05-17T17:55:00.556Z,18.70
2019-05-17T17:57:49.463Z,18.70
2019-05-17T18:00:38.782Z,18.70
2019-05-17T18:03:22.252Z,18.60
2019-05-17T18:06:11.522Z,18.60
2019-05-17T18:09:00.834Z,18.50
2019-05-17T18:11:36.820Z,18.50
2019-05-17T18:14:14.045Z,18.50
2019-05-17T18:16:56.928Z,18.50
2019-05-17T18:19:39.629Z,18.50
2019-05-17T18:22:28.149Z,18.40
2019-05-17T18:25:11.664Z,18.40
2019-05-17T18:27:48.175Z,18.40
2019-05-17T18:30:37.278Z,18.50
2019-05-17T18:33:26.945Z,18.50
2019-05-17T18:36:16.734Z,18.50
2019-05-17T18:39:01.614Z,18.50
2019-05-17T18:41:37.990Z,18.60
2019-05-17T18:44:28.307Z,18.60
2019-05-17T18:47:10.833Z,18.60
2019-05-17T18:50:00.750Z,18.60
2019-05-17T18:52:50.292Z,18.60
2019-05-17T18:55:26.327Z,18.70
2019-05-17T18:58:09.517Z,18.70
2019-05-17T19:00:59.977Z,18.70
2019-05-17T19:03:48.789Z,18.60
2019-05-17T19:06:31.550Z,18.50
2019-05-17T19:09:21.243Z,18.40
2019-05-17T19:12:10.052Z,18.40
2019-05-17T19:15:00.828Z,18.40
2019-05-17T19:17:50.329Z,18.40
2019-05-17T19:20:32.982Z,18.40
2019-05-17T19:23:15.069Z,18.30
2019-05-17T19:26:04.286Z,18.20
2019-05-17T19:28:46.279Z,18.20
2019-05-17T19:31:36.201Z,18.30
2019-05-17T19:34:18.609Z,18.20
2019-05-17T19:36:54.340Z,18.20
2019-05-17T19:39:44.853Z,18.20
2019-05-17T19:42:33.743Z,18.10
2019-05-17T19:45:23.602Z,18.00
2019-05-17T19:48:06.231Z,18.00
2019-05-17T19:50:42.678Z,17.90
2019-05-17T19:53:32.513Z,17.90
2019-05-17T19:56:15.637Z,17.90
2019-05-17T19:58:58.527Z,17.90
2019-05-17T20:01:41.100Z,17.90
2019-05-17T20:04:29.714Z,17.90
2019-05-17T20:07:12.350Z,17.90
2019-05-17T20:09:48.135Z,17.80
2019-05-17T20:12:30.634Z,17.70
2019-05-17T20:15:17.754Z,17.80
2019-05-17T20:18:00.320Z,17.80
2019-05-17T20:20:43.083Z,17.80
2019-05-17T20:23:19.210Z,17.70
2019-05-17T20:26:01.625Z,17.80
2019-05-17T20:28:51.600Z,17.80
2019-05-17T20:31:27.682Z,17.90
2019-05-17T20:34:10.821Z,17.90
2019-05-17T20:36:59.699Z,17.90
2019-05-17T20:39:42.997Z,17.90
2019-05-17T20:42:19.763Z,17.90
2019-05-17T20:45:02.745Z,17.70
2019-05-17T20:47:45.278Z,17.60
2019-05-17T20:50:22.339Z,17.60
2019-05-17T20:53:17.854Z,17.60
2019-05-17T20:55:50.007Z,17.50
2019-05-17T20:58:32.364Z,17.60
2019-05-17T21:01:22.657Z,17.60
2019-05-17T21:04:04.929Z,17.60
2019-05-17T21:06:48.136Z,17.60
2019-05-17T21:09:36.988Z,17.60
2019-05-17T21:12:19.449Z,17.60
2019-05-17T21:15:02.732Z,17.60
2019-05-17T21:17:52.243Z,17.50
2019-05-17T21:20:41.501Z,17.50
2019-05-17T21:23:30.860Z,17.50
2019-05-17T21:26:12.588Z,17.40
2019-05-17T21:28:55.597Z,17.40
2019-05-17T21:31:44.464Z,17.40
2019-05-17T21:34:33.601Z,17.40
2019-05-17T21:37:16.355Z,17.40
2019-05-17T21:39:59.920Z,17.30
2019-05-17T21:42:42.699Z,17.40
2019-05-17T21:45:19.672Z,17.30
2019-05-17T21:48:08.993Z,17.10
2019-05-17T21:50:58.997Z,17.10
2019-05-17T21:53:34.824Z,17.10
2019-05-17T21:56:17.285Z,17.10
2019-05-17T21:58:53.163Z,17.10
2019-05-17T22:01:39.175Z,17.00
2019-05-17T22:04:21.910Z,17.00
2019-05-17T22:07:04.496Z,17.00
2019-05-17T22:09:40.567Z,16.90
2019-05-17T22:12:23.313Z,16.90
2019-05-17T22:15:13.407Z,17.00
2019-05-17T22:17:55.623Z,17.00
2019-05-17T22:20:44.240Z,16.90
2019-05-17T22:23:27.531Z,16.70
2019-05-17T22:26:09.288Z,16.60
2019-05-17T22:28:58.746Z,16.40
2019-05-17T22:31:48.081Z,16.50
2019-05-17T22:34:23.913Z,16.60
2019-05-17T22:37:07.026Z,16.60
2019-05-17T22:39:50.316Z,16.60
2019-05-17T22:42:33.225Z,16.60
2019-05-17T22:45:15.815Z,16.50
2019-05-17T22:47:52.299Z,16.60
2019-05-17T22:50:28.594Z,16.50
2019-05-17T22:53:05.247Z,16.50
2019-05-17T22:55:47.790Z,16.50
2019-05-17T22:58:24.272Z,16.50
2019-05-17T23:01:06.126Z,16.60
2019-05-17T23:03:49.344Z,16.60
2019-05-17T23:06:32.407Z,16.50
2019-05-17T23:09:15.149Z,16.50
2019-05-17T23:12:04.081Z,16.50
2019-05-17T23:14:52.970Z,16.50
2019-05-17T23:17:42.195Z,16.60
2019-05-17T23:20:24.984Z,16.50
2019-05-17T23:23:01.015Z,16.50
2019-05-17T23:25:37.144Z,16.50
2019-05-17T23:28:13.616Z,16.40
2019-05-17T23:30:49.700Z,16.40
2019-05-17T23:33:19.222Z,16.50
2019-05-17T23:35:55.051Z,16.40
2019-05-17T23:38:24.583Z,16.50
2019-05-17T23:41:00.705Z,16.40
2019-05-17T23:43:43.023Z,16.40
2019-05-17T23:46:19.491Z,16.40
2019-05-17T23:48:55.240Z,16.40
2019-05-17T23:51:38.113Z,16.40
2019-05-17T23:54:27.770Z,16.30
2019-05-17T23:57:10.372Z,16.30
2019-05-17T23:59:59.865Z,16.40
